Terminal Aerodrome Forecast
Issued by NWS

Home | Current Version | Previous Version | Text Only | Print | Product List | Glossary On
Versions: 1 2 3 4 5 6 7 8 9 10 11 12 13 14
572
FTUS46 KEKA 251738
TAFUKI
TAF
KUKI 251738Z 2518/2618 15006KT P6SM FEW035 SCT250
     FM252100 15010G18KT P6SM SCT035 SCT250
     FM260300 14004KT P6SM FEW250
     FM261200 VRB03KT P6SM SCT010=

USA.gov is the U.S. government's official web portal to all federal, state and local government web resources and services.